Time;durP1;ratioP1;P1;durP2;ratioP2;P2;SDS_P1;SDS_P2;PMS_P1;PMS_P2;Temp;Humidity;BMP_temperature;BMP_pressure;BME280_temperature;BME280_humidity;BME280_pressure;Samples;Min_cycle;Max_cycle;Signal;HPM_P1;HPM_P2
2021/10/19 00:01:01;;;;;;;4.27;3.83;;;;;;;;;;5068329;28;20596;-67
2021/10/19 00:03:33;;;;;;;5.93;4.23;;;;;;;;;;5055523;28;20259;-67
2021/10/19 00:06:05;;;;;;;4.33;3.70;;;;;;;;;;5068148;28;20256;-67
2021/10/19 00:08:37;;;;;;;3.83;3.53;;;;;;;;;;5069809;28;20197;-67
2021/10/19 00:11:09;;;;;;;4.40;4.00;;;;;;;;;;5044945;28;20194;-67
2021/10/19 00:13:38;;;;;;;4.60;4.20;;;;;;;;;;5060114;28;20664;-67
2021/10/19 00:16:10;;;;;;;4.63;4.10;;;;;;;;;;5046609;28;20229;-67
2021/10/19 00:18:41;;;;;;;3.90;3.57;;;;;;;;;;5077258;28;20211;-68
2021/10/19 00:21:13;;;;;;;4.27;3.87;;;;;;;;;;5056506;28;20238;-67
2021/10/19 00:23:45;;;;;;;4.63;4.13;;;;;;;;;;5077463;28;20240;-67
2021/10/19 00:26:20;;;;;;;4.10;3.70;;;;;;;;;;5053316;28;20205;-68
2021/10/19 00:28:52;;;;;;;4.23;3.83;;;;;;;;;;5070509;28;20202;-68
2021/10/19 00:31:22;;;;;;;4.10;3.73;;;;;;;;;;5027685;28;20205;-67
2021/10/19 00:33:53;;;;;;;4.47;4.07;;;;;;;;;;5069388;28;20518;-67
2021/10/19 00:36:26;;;;;;;4.10;3.80;;;;;;;;;;5067036;28;20214;-66
2021/10/19 00:38:59;;;;;;;4.20;3.80;;;;;;;;;;5070157;28;20282;-66
2021/10/19 00:41:31;;;;;;;5.17;3.90;;;;;;;;;;5062920;28;20206;-67
2021/10/19 00:44:02;;;;;;;4.30;3.90;;;;;;;;;;5070934;28;20308;-66
2021/10/19 00:46:33;;;;;;;4.53;3.93;;;;;;;;;;5075336;28;20204;-66
2021/10/19 00:49:05;;;;;;;4.40;4.10;;;;;;;;;;5066001;28;20247;-66
2021/10/19 00:51:36;;;;;;;4.43;4.03;;;;;;;;;;5070967;28;20361;-67
2021/10/19 00:54:10;;;;;;;4.70;3.50;;;;;;;;;;5045626;28;20205;-68
2021/10/19 00:56:42;;;;;;;3.90;3.50;;;;;;;;;;5067812;28;20205;-67
2021/10/19 00:59:20;;;;;;;3.83;3.50;;;;;;;;;;5064706;28;20202;-68
2021/10/19 01:01:52;;;;;;;4.53;4.13;;;;;;;;;;5069859;28;20250;-67
2021/10/19 01:04:25;;;;;;;4.37;3.97;;;;;;;;;;5066255;28;20213;-67
2021/10/19 01:07:00;;;;;;;4.27;3.87;;;;;;;;;;5068629;28;20255;-67
2021/10/19 01:09:32;;;;;;;4.87;3.93;;;;;;;;;;5058419;28;20208;-66
2021/10/19 01:12:05;;;;;;;4.50;4.10;;;;;;;;;;5063369;28;20222;-67
2021/10/19 01:14:39;;;;;;;4.57;4.10;;;;;;;;;;5058995;28;20636;-67
2021/10/19 01:17:11;;;;;;;4.33;3.57;;;;;;;;;;5060321;28;20205;-67
2021/10/19 01:19:44;;;;;;;5.40;3.73;;;;;;;;;;5077396;28;20204;-67
2021/10/19 01:22:12;;;;;;;4.10;3.70;;;;;;;;;;5085207;28;20975;-67
2021/10/19 01:24:44;;;;;;;5.47;3.90;;;;;;;;;;5072433;28;20217;-66
2021/10/19 01:27:17;;;;;;;4.30;3.90;;;;;;;;;;5071294;28;20636;-67
2021/10/19 01:29:47;;;;;;;4.43;3.60;;;;;;;;;;5085591;28;20284;-66
2021/10/19 01:32:22;;;;;;;3.83;3.53;;;;;;;;;;5088988;28;20637;-67
2021/10/19 01:34:54;;;;;;;4.40;3.73;;;;;;;;;;5091044;28;20484;-66
2021/10/19 01:37:25;;;;;;;4.00;3.70;;;;;;;;;;5066971;28;20220;-67
2021/10/19 01:39:57;;;;;;;3.70;3.40;;;;;;;;;;5086961;28;20251;-66
2021/10/19 01:42:33;;;;;;;4.10;3.70;;;;;;;;;;5074935;28;20209;-66
2021/10/19 01:45:04;;;;;;;3.73;3.43;;;;;;;;;;5092491;28;20222;-66
2021/10/19 01:47:35;;;;;;;4.10;3.70;;;;;;;;;;5099593;28;20213;-67
2021/10/19 01:50:09;;;;;;;3.80;3.50;;;;;;;;;;5089625;28;20201;-66
2021/10/19 01:52:40;;;;;;;3.70;3.40;;;;;;;;;;5088691;28;20258;-66
2021/10/19 01:55:11;;;;;;;3.63;3.33;;;;;;;;;;5084052;28;20196;-67
2021/10/19 01:57:44;;;;;;;4.13;3.63;;;;;;;;;;5073474;28;20615;-67
2021/10/19 02:00:16;;;;;;;3.77;3.30;;;;;;;;;;5094920;28;20258;-66
2021/10/19 02:02:46;;;;;;;4.43;4.03;;;;;;;;;;5067215;28;20204;-67
2021/10/19 02:05:18;;;;;;;4.17;3.73;;;;;;;;;;5089239;28;20591;-66
2021/10/19 02:07:48;;;;;;;4.40;3.50;;;;;;;;;;5088357;28;20191;-66
2021/10/19 02:10:20;;;;;;;3.77;3.47;;;;;;;;;;5075366;28;20197;-66
2021/10/19 02:12:52;;;;;;;4.03;3.63;;;;;;;;;;5087920;28;20197;-66
2021/10/19 02:15:27;;;;;;;3.57;3.27;;;;;;;;;;5100196;28;20220;-66
2021/10/19 02:18:08;;;;;;;3.70;3.40;;;;;;;;;;5081460;28;20263;-66
2021/10/19 02:20:40;;;;;;;3.57;3.27;;;;;;;;;;5077709;28;20678;-66
2021/10/19 02:23:11;;;;;;;3.87;3.57;;;;;;;;;;5053977;28;20225;-66
2021/10/19 02:25:41;;;;;;;5.73;3.67;;;;;;;;;;5061163;28;20674;-66
2021/10/19 02:28:12;;;;;;;3.70;3.40;;;;;;;;;;5068976;28;20209;-66
2021/10/19 02:30:49;;;;;;;3.87;3.50;;;;;;;;;;5060888;28;20201;-66
2021/10/19 02:33:19;;;;;;;3.87;3.57;;;;;;;;;;5048517;28;20251;-66
2021/10/19 02:35:54;;;;;;;4.40;4.00;;;;;;;;;;5064827;28;20568;-66
2021/10/19 02:38:23;;;;;;;4.23;3.83;;;;;;;;;;5060598;28;20197;-66
2021/10/19 02:40:52;;;;;;;4.10;3.70;;;;;;;;;;5066416;28;20201;-66
2021/10/19 02:43:20;;;;;;;4.10;3.70;;;;;;;;;;5050888;28;20209;-66
2021/10/19 02:45:52;;;;;;;4.00;3.70;;;;;;;;;;5064146;28;20206;-66
2021/10/19 02:48:35;;;;;;;3.87;3.50;;;;;;;;;;5055404;28;20350;-66
2021/10/19 02:51:04;;;;;;;4.33;3.93;;;;;;;;;;5062316;28;20198;-66
2021/10/19 02:53:35;;;;;;;4.27;3.70;;;;;;;;;;5065733;28;20209;-66
2021/10/19 02:56:05;;;;;;;5.23;4.03;;;;;;;;;;5067000;28;20208;-66
2021/10/19 02:58:48;;;;;;;3.70;3.40;;;;;;;;;;5067666;28;20208;-67
2021/10/19 03:01:19;;;;;;;4.13;3.70;;;;;;;;;;5060055;28;20223;-66
2021/10/19 03:03:51;;;;;;;3.57;3.27;;;;;;;;;;5063704;28;20206;-66
2021/10/19 03:06:28;;;;;;;4.20;3.80;;;;;;;;;;5058322;28;20196;-66
2021/10/19 03:08:59;;;;;;;4.80;3.87;;;;;;;;;;5065291;28;20811;-66
2021/10/19 03:11:29;;;;;;;3.90;3.60;;;;;;;;;;5054989;28;20197;-66
2021/10/19 03:14:03;;;;;;;4.23;3.83;;;;;;;;;;5061629;28;20625;-66
2021/10/19 03:16:35;;;;;;;4.57;4.17;;;;;;;;;;5058894;28;20205;-66
2021/10/19 03:19:42;;;;;;;4.10;3.80;;;;;;;;;;5065281;28;20217;-66
2021/10/19 03:22:13;;;;;;;3.83;3.53;;;;;;;;;;5064940;28;20222;-66
2021/10/19 03:24:46;;;;;;;3.83;3.53;;;;;;;;;;5051164;28;20230;-66
2021/10/19 03:27:18;;;;;;;3.70;3.40;;;;;;;;;;5077427;28;20223;-66
2021/10/19 03:29:47;;;;;;;4.03;3.63;;;;;;;;;;5050205;28;20808;-66
2021/10/19 03:32:21;;;;;;;3.50;3.20;;;;;;;;;;5067545;28;20206;-66
2021/10/19 03:34:56;;;;;;;3.80;3.50;;;;;;;;;;5034131;28;20259;-66
2021/10/19 03:37:26;;;;;;;4.03;3.63;;;;;;;;;;5065852;28;20865;-66
2021/10/19 03:39:57;;;;;;;4.10;3.80;;;;;;;;;;5065062;28;20221;-66
2021/10/19 03:42:28;;;;;;;3.83;3.53;;;;;;;;;;5065868;28;20199;-66
2021/10/19 03:45:07;;;;;;;4.17;3.77;;;;;;;;;;5061005;28;20217;-66
2021/10/19 03:47:35;;;;;;;4.03;3.63;;;;;;;;;;5050343;28;20249;-66
2021/10/19 03:50:05;;;;;;;4.10;3.67;;;;;;;;;;5078236;28;20263;-66
2021/10/19 03:52:37;;;;;;;3.60;3.30;;;;;;;;;;5062126;28;20182;-66
2021/10/19 03:55:08;;;;;;;4.40;3.60;;;;;;;;;;5052316;28;20217;-66
2021/10/19 03:57:39;;;;;;;3.70;3.40;;;;;;;;;;5039976;28;20245;-66
2021/10/19 04:00:08;;;;;;;4.03;3.43;;;;;;;;;;5068979;28;20212;-66
2021/10/19 04:02:38;;;;;;;3.70;3.40;;;;;;;;;;5069441;28;20647;-66
2021/10/19 04:05:09;;;;;;;4.10;3.70;;;;;;;;;;5069047;28;20728;-66
2021/10/19 04:07:40;;;;;;;3.67;3.37;;;;;;;;;;5067739;28;20628;-66
2021/10/19 04:10:18;;;;;;;3.70;3.40;;;;;;;;;;5067489;28;20202;-66
2021/10/19 04:12:47;;;;;;;4.10;3.70;;;;;;;;;;5063208;28;20198;-66
2021/10/19 04:15:19;;;;;;;4.00;3.60;;;;;;;;;;5065531;28;20606;-67
2021/10/19 04:17:50;;;;;;;4.47;3.80;;;;;;;;;;5066640;28;20197;-67
2021/10/19 04:20:24;;;;;;;4.00;3.70;;;;;;;;;;5072488;28;20685;-66
2021/10/19 04:22:54;;;;;;;4.50;3.70;;;;;;;;;;5071513;28;20339;-66
2021/10/19 04:25:40;;;;;;;5.87;3.43;;;;;;;;;;5068817;28;20698;-66
2021/10/19 04:28:23;;;;;;;4.17;3.77;;;;;;;;;;5067105;28;20272;-66
2021/10/19 04:30:53;;;;;;;4.50;4.10;;;;;;;;;;5053586;28;20198;-66
2021/10/19 04:33:28;;;;;;;3.70;3.40;;;;;;;;;;5050173;28;20203;-66
2021/10/19 04:36:11;;;;;;;3.87;3.30;;;;;;;;;;5054288;28;20228;-66
2021/10/19 04:38:42;;;;;;;3.80;3.30;;;;;;;;;;5068955;28;20628;-66
2021/10/19 04:41:13;;;;;;;3.90;3.60;;;;;;;;;;5037657;28;20194;-66
2021/10/19 04:43:46;;;;;;;4.20;3.80;;;;;;;;;;5070955;28;20200;-67
2021/10/19 04:46:17;;;;;;;3.60;3.30;;;;;;;;;;5082046;28;20217;-67
2021/10/19 04:48:57;;;;;;;4.07;3.70;;;;;;;;;;5052413;28;20202;-66
2021/10/19 04:51:31;;;;;;;3.67;3.37;;;;;;;;;;5067589;28;20232;-66
2021/10/19 04:54:00;;;;;;;3.70;3.40;;;;;;;;;;5071183;28;20205;-66
2021/10/19 04:56:29;;;;;;;4.23;3.57;;;;;;;;;;5050489;28;20225;-66
2021/10/19 04:59:11;;;;;;;3.87;3.47;;;;;;;;;;5053523;28;20285;-67
2021/10/19 05:01:45;;;;;;;4.30;3.90;;;;;;;;;;5078931;28;20212;-67
2021/10/19 05:04:21;;;;;;;3.83;3.53;;;;;;;;;;5053745;28;20202;-67
2021/10/19 05:06:49;;;;;;;3.60;3.30;;;;;;;;;;5083352;28;20603;-67
2021/10/19 05:09:20;;;;;;;4.47;3.40;;;;;;;;;;5049384;28;20659;-66
2021/10/19 05:11:57;;;;;;;3.87;3.30;;;;;;;;;;5065625;28;20197;-67
2021/10/19 05:14:29;;;;;;;3.60;3.30;;;;;;;;;;5053829;28;20190;-67
2021/10/19 05:17:02;;;;;;;4.47;3.73;;;;;;;;;;5051628;28;20205;-67
2021/10/19 05:19:34;;;;;;;3.50;3.20;;;;;;;;;;5068948;28;20193;-67
2021/10/19 05:22:04;;;;;;;4.47;3.20;;;;;;;;;;5077976;28;20299;-67
2021/10/19 05:24:36;;;;;;;3.63;3.33;;;;;;;;;;5087440;28;20211;-67
2021/10/19 05:27:19;;;;;;;3.63;3.27;;;;;;;;;;5075853;28;20287;-67
2021/10/19 05:29:49;;;;;;;4.40;3.47;;;;;;;;;;5068635;28;20271;-66
2021/10/19 05:32:21;;;;;;;3.60;3.30;;;;;;;;;;5086503;28;20205;-66
2021/10/19 05:34:53;;;;;;;4.40;3.30;;;;;;;;;;5084230;28;20507;-66
2021/10/19 05:37:24;;;;;;;3.37;2.90;;;;;;;;;;5091835;28;20246;-67
2021/10/19 05:40:05;;;;;;;3.17;2.97;;;;;;;;;;5086315;28;20189;-65
2021/10/19 05:42:47;;;;;;;5.80;3.13;;;;;;;;;;5083161;28;20291;-66
2021/10/19 05:45:18;;;;;;;16.40;4.43;;;;;;;;;;5085075;28;20215;-66
2021/10/19 05:48:02;;;;;;;13.47;4.50;;;;;;;;;;5091349;28;20261;-66
2021/10/19 05:50:36;;;;;;;13.70;5.23;;;;;;;;;;5071143;28;20285;-66
2021/10/19 05:53:08;;;;;;;7.77;4.67;;;;;;;;;;5079945;28;20198;-66
2021/10/19 05:55:53;;;;;;;8.40;4.53;;;;;;;;;;5082100;28;20198;-65
2021/10/19 05:58:44;;;;;;;10.63;4.67;;;;;;;;;;5084897;28;20665;-66
2021/10/19 06:01:28;;;;;;;12.97;4.60;;;;;;;;;;5069061;28;20428;-67
2021/10/19 06:03:58;;;;;;;8.03;4.20;;;;;;;;;;5031824;28;20232;-67
2021/10/19 06:06:32;;;;;;;8.07;4.13;;;;;;;;;;5078177;28;20220;-70
2021/10/19 06:09:06;;;;;;;13.37;4.30;;;;;;;;;;5086649;28;20205;-67
2021/10/19 06:11:45;;;;;;;9.90;4.27;;;;;;;;;;5084223;28;20276;-65
2021/10/19 06:14:18;;;;;;;10.33;4.67;;;;;;;;;;5085555;28;20197;-62
2021/10/19 06:16:50;;;;;;;7.73;3.70;;;;;;;;;;5080125;28;20204;-63
2021/10/19 06:19:25;;;;;;;8.97;4.10;;;;;;;;;;5066278;28;20630;-63
2021/10/19 06:21:54;;;;;;;6.00;3.67;;;;;;;;;;5089554;28;20236;-63
2021/10/19 06:24:27;;;;;;;4.93;3.43;;;;;;;;;;5088309;28;20232;-65
2021/10/19 06:27:00;;;;;;;5.47;3.40;;;;;;;;;;5101240;28;20201;-64
2021/10/19 06:29:29;;;;;;;4.87;3.17;;;;;;;;;;5099850;27;20232;-69
2021/10/19 06:32:10;;;;;;;6.37;3.37;;;;;;;;;;5081411;28;20217;-65
2021/10/19 06:34:44;;;;;;;5.33;3.17;;;;;;;;;;5085492;28;20189;-66
2021/10/19 06:37:27;;;;;;;7.07;3.23;;;;;;;;;;5067340;28;20312;-66
2021/10/19 06:40:09;;;;;;;4.30;3.07;;;;;;;;;;5079576;28;20231;-66
2021/10/19 06:42:47;;;;;;;4.37;2.90;;;;;;;;;;5084751;28;20650;-67
2021/10/19 06:45:18;;;;;;;4.30;2.67;;;;;;;;;;5083187;28;20235;-67
2021/10/19 06:47:48;;;;;;;6.40;2.90;;;;;;;;;;5069620;28;20234;-66
2021/10/19 06:50:19;;;;;;;5.73;3.10;;;;;;;;;;5094398;28;20193;-66
2021/10/19 06:52:49;;;;;;;6.23;3.40;;;;;;;;;;5087701;28;20212;-64
2021/10/19 06:55:23;;;;;;;4.10;2.80;;;;;;;;;;5084738;28;20284;-64
2021/10/19 06:58:25;;;;;;;7.07;2.77;;;;;;;;;;5084872;28;20193;-64
2021/10/19 07:01:00;;;;;;;4.97;2.87;;;;;;;;;;5084433;28;20295;-68
2021/10/19 07:03:31;;;;;;;6.27;2.50;;;;;;;;;;5084239;28;20193;-65
2021/10/19 07:06:05;;;;;;;4.30;2.27;;;;;;;;;;5091168;28;20209;-66
2021/10/19 07:08:39;;;;;;;2.47;2.27;;;;;;;;;;5086110;28;20209;-64
2021/10/19 07:11:10;;;;;;;6.37;2.67;;;;;;;;;;5072916;28;20215;-65
2021/10/19 07:13:41;;;;;;;3.60;2.30;;;;;;;;;;5091469;28;20194;-66
2021/10/19 07:16:13;;;;;;;3.03;2.30;;;;;;;;;;5096114;28;20192;-64
2021/10/19 07:18:45;;;;;;;8.87;2.23;;;;;;;;;;5084710;28;20296;-67
2021/10/19 07:21:41;;;;;;;6.10;2.60;;;;;;;;;;5089745;28;20232;-66
2021/10/19 07:24:11;;;;;;;2.30;1.80;;;;;;;;;;5069982;28;20586;-67
2021/10/19 07:26:43;;;;;;;3.17;2.17;;;;;;;;;;5091935;28;20673;-66
2021/10/19 07:29:14;;;;;;;2.80;2.27;;;;;;;;;;5088466;28;20230;-66
2021/10/19 07:31:47;;;;;;;3.87;1.87;;;;;;;;;;5089398;28;20244;-67
2021/10/19 07:34:19;;;;;;;2.80;2.00;;;;;;;;;;5087961;28;20197;-66
2021/10/19 07:36:51;;;;;;;3.90;1.83;;;;;;;;;;5085250;28;20211;-68
2021/10/19 07:39:22;;;;;;;2.70;2.10;;;;;;;;;;5085316;28;20300;-69
2021/10/19 07:41:57;;;;;;;3.87;1.90;;;;;;;;;;5086017;28;20201;-68
2021/10/19 07:44:32;;;;;;;4.13;1.60;;;;;;;;;;5090036;28;20706;-66
2021/10/19 07:47:03;;;;;;;2.23;2.00;;;;;;;;;;5075501;28;20213;-68
2021/10/19 07:49:34;;;;;;;3.73;2.10;;;;;;;;;;5062107;28;20709;-68
2021/10/19 07:52:06;;;;;;;2.40;2.10;;;;;;;;;;5088791;28;20193;-68
2021/10/19 07:54:35;;;;;;;8.47;2.20;;;;;;;;;;5080710;28;20213;-67
2021/10/19 07:57:06;;;;;;;1.90;1.63;;;;;;;;;;5090708;28;20233;-68
2021/10/19 07:59:34;;;;;;;1.67;1.57;;;;;;;;;;5076506;28;20212;-69
2021/10/19 08:02:09;;;;;;;2.60;1.53;;;;;;;;;;5090007;28;20200;-70
2021/10/19 08:04:43;;;;;;;6.00;1.83;;;;;;;;;;5058987;28;20197;-71
2021/10/19 08:07:16;;;;;;;2.30;1.60;;;;;;;;;;5083637;28;20243;-68
2021/10/19 08:09:48;;;;;;;5.53;1.80;;;;;;;;;;5089564;28;20561;-67
2021/10/19 08:12:26;;;;;;;3.73;1.70;;;;;;;;;;5085767;28;20209;-68
2021/10/19 08:15:02;;;;;;;1.63;1.20;;;;;;;;;;5089247;28;20200;-70
2021/10/19 08:17:35;;;;;;;4.63;1.50;;;;;;;;;;5087244;28;20579;-72
2021/10/19 08:20:05;;;;;;;1.93;1.53;;;;;;;;;;5114033;27;20201;-69
2021/10/19 08:22:38;;;;;;;1.50;1.40;;;;;;;;;;5072941;28;20238;-68
2021/10/19 08:25:10;;;;;;;1.60;1.30;;;;;;;;;;5062825;28;20210;-66
2021/10/19 08:27:42;;;;;;;1.90;1.60;;;;;;;;;;5064774;28;20210;-66
2021/10/19 08:30:21;;;;;;;1.27;1.13;;;;;;;;;;5052504;28;20228;-70
2021/10/19 08:32:52;;;;;;;1.47;1.37;;;;;;;;;;5065839;28;20703;-68
2021/10/19 08:35:25;;;;;;;2.03;1.27;;;;;;;;;;5062290;28;20571;-68
2021/10/19 08:37:56;;;;;;;1.63;1.10;;;;;;;;;;5074881;28;20229;-69
2021/10/19 08:40:29;;;;;;;1.97;1.27;;;;;;;;;;5067241;28;20220;-69
2021/10/19 08:43:00;;;;;;;1.43;1.30;;;;;;;;;;5062121;28;20210;-70
2021/10/19 08:45:30;;;;;;;1.93;1.20;;;;;;;;;;5047008;28;20596;-68
2021/10/19 08:48:03;;;;;;;1.10;1.00;;;;;;;;;;5066036;28;20222;-69
2021/10/19 08:50:32;;;;;;;1.50;1.40;;;;;;;;;;5067110;28;20194;-66
2021/10/19 08:53:15;;;;;;;1.37;1.10;;;;;;;;;;5065384;28;20193;-66
2021/10/19 08:55:45;;;;;;;1.80;1.20;;;;;;;;;;5049797;28;20220;-64
2021/10/19 08:58:20;;;;;;;2.10;1.30;;;;;;;;;;5079621;28;20545;-68
2021/10/19 09:01:02;;;;;;;6.27;1.23;;;;;;;;;;5049438;28;20218;-67
2021/10/19 09:03:33;;;;;;;2.50;1.20;;;;;;;;;;5052816;28;20298;-68
2021/10/19 09:06:04;;;;;;;2.77;1.10;;;;;;;;;;5047306;28;20251;-67
2021/10/19 09:08:36;;;;;;;2.97;1.07;;;;;;;;;;5065524;28;20293;-67
2021/10/19 09:11:17;;;;;;;2.33;1.10;;;;;;;;;;5066966;28;20229;-67
2021/10/19 09:14:00;;;;;;;1.43;0.90;;;;;;;;;;5067080;28;20198;-66
2021/10/19 09:16:47;;;;;;;1.70;0.90;;;;;;;;;;5067369;28;20236;-66
2021/10/19 09:19:23;;;;;;;2.10;1.17;;;;;;;;;;5066571;28;20247;-66
2021/10/19 09:21:56;;;;;;;1.13;1.00;;;;;;;;;;5065495;28;20237;-67
2021/10/19 09:24:32;;;;;;;3.90;0.90;;;;;;;;;;5064049;28;20210;-68
2021/10/19 09:27:06;;;;;;;1.47;1.03;;;;;;;;;;5074411;28;20227;-67
2021/10/19 09:29:36;;;;;;;1.53;1.00;;;;;;;;;;5068734;28;20221;-67
2021/10/19 09:32:07;;;;;;;2.43;1.27;;;;;;;;;;5051066;28;20205;-68
2021/10/19 09:34:41;;;;;;;1.00;0.90;;;;;;;;;;5066983;28;20194;-67
2021/10/19 09:37:17;;;;;;;0.70;0.70;;;;;;;;;;5044294;28;20343;-68
2021/10/19 09:39:48;;;;;;;1.27;0.97;;;;;;;;;;5050023;28;20209;-69
2021/10/19 09:42:24;;;;;;;3.63;1.20;;;;;;;;;;5066571;28;20551;-68
2021/10/19 09:45:02;;;;;;;1.90;1.30;;;;;;;;;;5069536;28;20235;-68
2021/10/19 09:47:43;;;;;;;4.00;1.40;;;;;;;;;;5066970;28;20710;-68
2021/10/19 09:50:14;;;;;;;1.67;1.30;;;;;;;;;;5073298;28;20200;-66
2021/10/19 09:52:45;;;;;;;3.53;1.10;;;;;;;;;;5067540;28;20210;-67
2021/10/19 09:55:19;;;;;;;1.67;1.20;;;;;;;;;;5065967;28;20201;-67
2021/10/19 09:57:52;;;;;;;5.63;1.50;;;;;;;;;;5070415;28;20190;-68
2021/10/19 10:00:24;;;;;;;2.00;1.40;;;;;;;;;;5046958;28;20496;-66
2021/10/19 10:02:56;;;;;;;2.47;1.57;;;;;;;;;;5051450;28;20217;-68
2021/10/19 10:05:26;;;;;;;2.40;1.37;;;;;;;;;;5063296;28;20255;-66
2021/10/19 10:07:57;;;;;;;4.37;1.40;;;;;;;;;;5066138;28;20920;-67
2021/10/19 10:10:31;;;;;;;4.90;1.50;;;;;;;;;;5068019;28;20197;-69
2021/10/19 10:13:10;;;;;;;3.60;1.57;;;;;;;;;;5065007;28;20641;-67
2021/10/19 10:15:42;;;;;;;1.90;1.30;;;;;;;;;;5065628;28;20201;-67
2021/10/19 10:18:32;;;;;;;1.73;1.43;;;;;;;;;;5067557;28;20568;-67
2021/10/19 10:21:27;;;;;;;3.30;1.60;;;;;;;;;;5067258;28;20221;-70
2021/10/19 10:24:05;;;;;;;3.83;1.27;;;;;;;;;;5081071;28;20221;-70
2021/10/19 10:26:39;;;;;;;1.30;1.10;;;;;;;;;;5085002;28;21141;-70
2021/10/19 10:29:12;;;;;;;3.40;1.60;;;;;;;;;;5077688;28;20193;-69
2021/10/19 10:31:51;;;;;;;2.87;1.50;;;;;;;;;;5073296;28;20201;-70
2021/10/19 10:34:32;;;;;;;1.50;1.10;;;;;;;;;;5057818;28;20934;-69
2021/10/19 10:37:11;;;;;;;2.30;1.40;;;;;;;;;;5065580;28;20217;-69
2021/10/19 10:39:45;;;;;;;2.17;1.30;;;;;;;;;;5069360;28;20580;-69
2021/10/19 10:42:16;;;;;;;2.83;1.60;;;;;;;;;;5081359;28;20321;-69
2021/10/19 10:44:47;;;;;;;4.00;1.80;;;;;;;;;;5102050;28;20220;-69
2021/10/19 10:47:24;;;;;;;1.47;1.20;;;;;;;;;;5082311;28;20225;-70
2021/10/19 10:50:02;;;;;;;2.03;1.40;;;;;;;;;;5089617;28;20677;-69
2021/10/19 10:52:31;;;;;;;5.93;1.97;;;;;;;;;;5088292;28;20317;-69
2021/10/19 10:55:01;;;;;;;2.60;1.40;;;;;;;;;;5089626;28;20197;-69
2021/10/19 10:57:43;;;;;;;1.50;1.33;;;;;;;;;;5087826;28;20204;-69
2021/10/19 11:00:22;;;;;;;2.83;1.37;;;;;;;;;;5103022;28;20212;-69
2021/10/19 11:03:09;;;;;;;1.47;1.30;;;;;;;;;;5071707;28;20201;-69
2021/10/19 11:06:04;;;;;;;1.80;1.43;;;;;;;;;;5092569;28;20201;-69
2021/10/19 11:08:48;;;;;;;2.90;1.50;;;;;;;;;;5087456;28;20199;-69
2021/10/19 11:11:36;;;;;;;1.80;1.50;;;;;;;;;;5085904;28;20321;-69
2021/10/19 11:14:12;;;;;;;1.80;1.50;;;;;;;;;;5086012;28;20211;-70
2021/10/19 11:16:52;;;;;;;1.93;1.57;;;;;;;;;;5087036;28;20200;-70
2021/10/19 11:19:26;;;;;;;1.47;1.20;;;;;;;;;;5082429;28;20223;-67
2021/10/19 11:22:23;;;;;;;1.87;1.40;;;;;;;;;;5087776;28;20242;-68
2021/10/19 11:24:53;;;;;;;3.03;1.70;;;;;;;;;;5068769;28;20209;-67
2021/10/19 11:27:28;;;;;;;1.73;1.50;;;;;;;;;;5064316;28;20307;-65
2021/10/19 11:29:59;;;;;;;2.33;1.67;;;;;;;;;;5076854;28;20239;-67
2021/10/19 11:32:27;;;;;;;2.27;1.30;;;;;;;;;;5071612;28;20267;-67
2021/10/19 11:34:59;;;;;;;2.07;1.50;;;;;;;;;;5068485;28;20288;-67
2021/10/19 11:37:32;;;;;;;3.17;1.90;;;;;;;;;;5066568;28;20690;-65
2021/10/19 11:40:03;;;;;;;1.57;1.40;;;;;;;;;;5071234;28;20205;-67
2021/10/19 11:42:42;;;;;;;5.17;1.87;;;;;;;;;;5067218;28;20205;-69
2021/10/19 11:45:15;;;;;;;1.60;1.50;;;;;;;;;;5033573;28;20201;-68
2021/10/19 11:47:56;;;;;;;1.60;1.50;;;;;;;;;;5072258;28;20234;-68
2021/10/19 11:50:28;;;;;;;2.10;1.80;;;;;;;;;;5072824;28;20210;-69
2021/10/19 11:53:02;;;;;;;2.73;1.63;;;;;;;;;;5068434;28;20201;-68
2021/10/19 11:55:34;;;;;;;2.30;1.70;;;;;;;;;;5052101;28;20201;-67
2021/10/19 11:58:05;;;;;;;1.77;1.37;;;;;;;;;;5062440;28;20214;-68
2021/10/19 12:00:38;;;;;;;1.80;1.60;;;;;;;;;;5068479;28;20209;-69
2021/10/19 12:03:11;;;;;;;1.97;1.60;;;;;;;;;;5061059;28;20202;-67
2021/10/19 12:05:43;;;;;;;3.47;1.70;;;;;;;;;;5073342;28;20219;-65
2021/10/19 12:08:15;;;;;;;3.33;2.03;;;;;;;;;;5065349;28;20222;-65
2021/10/19 12:10:48;;;;;;;2.70;1.33;;;;;;;;;;5067339;28;20197;-67
2021/10/19 12:13:19;;;;;;;2.00;1.70;;;;;;;;;;5029670;28;20565;-66
2021/10/19 12:15:57;;;;;;;2.37;1.70;;;;;;;;;;5070507;28;20206;-66
2021/10/19 12:18:28;;;;;;;2.50;1.87;;;;;;;;;;5069148;28;20258;-66
2021/10/19 12:21:02;;;;;;;1.87;1.40;;;;;;;;;;5054463;28;20861;-66
2021/10/19 12:23:30;;;;;;;16.83;1.60;;;;;;;;;;5048189;28;20606;-65
2021/10/19 12:26:04;;;;;;;2.57;1.60;;;;;;;;;;5083060;28;20205;-65
2021/10/19 12:28:32;;;;;;;2.60;1.50;;;;;;;;;;5066225;28;20252;-66
2021/10/19 12:31:01;;;;;;;2.20;1.87;;;;;;;;;;5064329;28;20205;-65
2021/10/19 12:33:31;;;;;;;2.90;1.70;;;;;;;;;;5070144;28;20200;-66
2021/10/19 12:36:02;;;;;;;1.43;1.33;;;;;;;;;;5061983;28;20222;-65
2021/10/19 12:38:39;;;;;;;1.83;1.73;;;;;;;;;;5069755;28;20205;-66
2021/10/19 12:41:23;;;;;;;1.90;1.70;;;;;;;;;;5075513;28;20289;-65
2021/10/19 12:43:59;;;;;;;3.60;1.80;;;;;;;;;;5068406;28;20206;-65
2021/10/19 12:46:33;;;;;;;3.50;1.70;;;;;;;;;;5086594;28;20221;-66
2021/10/19 12:49:05;;;;;;;2.33;1.70;;;;;;;;;;5069871;28;20224;-65
2021/10/19 12:51:51;;;;;;;2.13;1.80;;;;;;;;;;5069903;28;20202;-65
2021/10/19 12:54:22;;;;;;;4.93;1.63;;;;;;;;;;5074656;28;20282;-65
2021/10/19 12:56:54;;;;;;;2.27;1.80;;;;;;;;;;5081803;28;20224;-65
2021/10/19 12:59:31;;;;;;;2.20;2.00;;;;;;;;;;5067179;28;20213;-66
2021/10/19 13:02:02;;;;;;;4.00;2.07;;;;;;;;;;5068723;28;20275;-69
2021/10/19 13:04:34;;;;;;;2.50;2.10;;;;;;;;;;5074568;28;20198;-68
2021/10/19 13:07:05;;;;;;;2.60;2.03;;;;;;;;;;5069959;28;20706;-68
2021/10/19 13:09:35;;;;;;;1.63;1.50;;;;;;;;;;5070352;28;20216;-67
2021/10/19 13:12:06;;;;;;;2.10;1.90;;;;;;;;;;5068895;28;20218;-67
2021/10/19 13:14:38;;;;;;;2.20;2.00;;;;;;;;;;5068968;28;20194;-68
2021/10/19 13:17:09;;;;;;;3.47;1.90;;;;;;;;;;5066978;28;20493;-69
2021/10/19 13:19:41;;;;;;;4.13;2.00;;;;;;;;;;5049555;28;20202;-68
2021/10/19 13:22:11;;;;;;;3.93;1.67;;;;;;;;;;5069902;28;20225;-69
2021/10/19 13:24:41;;;;;;;3.63;2.07;;;;;;;;;;5050853;28;20236;-70
2021/10/19 13:27:12;;;;;;;3.80;1.90;;;;;;;;;;5068252;28;20264;-69
2021/10/19 13:29:58;;;;;;;4.87;2.20;;;;;;;;;;5065158;28;20645;-66
2021/10/19 13:32:29;;;;;;;1.70;1.60;;;;;;;;;;5062428;28;20195;-67
2021/10/19 13:35:05;;;;;;;3.80;2.00;;;;;;;;;;5076327;28;20206;-69
2021/10/19 13:37:34;;;;;;;4.10;2.10;;;;;;;;;;5065473;28;20760;-67
2021/10/19 13:40:06;;;;;;;3.40;1.83;;;;;;;;;;5053126;28;20263;-68
2021/10/19 13:42:37;;;;;;;2.30;1.80;;;;;;;;;;5063946;28;20672;-68
2021/10/19 13:45:14;;;;;;;4.30;2.03;;;;;;;;;;5082084;28;20205;-69
2021/10/19 13:47:44;;;;;;;3.80;2.10;;;;;;;;;;5061011;28;20802;-67
2021/10/19 13:50:17;;;;;;;2.57;2.10;;;;;;;;;;5064139;28;20201;-67
2021/10/19 13:52:46;;;;;;;6.80;2.30;;;;;;;;;;5041726;28;20201;-66
2021/10/19 13:55:19;;;;;;;2.63;2.07;;;;;;;;;;5073923;28;20210;-67
2021/10/19 13:57:56;;;;;;;2.40;1.80;;;;;;;;;;5056359;28;20217;-67
2021/10/19 14:00:27;;;;;;;3.33;2.17;;;;;;;;;;5054225;28;20309;-69
2021/10/19 14:03:01;;;;;;;2.43;2.00;;;;;;;;;;5066366;28;20205;-69
2021/10/19 14:05:32;;;;;;;2.10;1.87;;;;;;;;;;5064845;28;20213;-69
2021/10/19 14:08:00;;;;;;;4.57;2.40;;;;;;;;;;5058205;28;20229;-67
2021/10/19 14:10:30;;;;;;;2.00;1.80;;;;;;;;;;5067821;28;20216;-66
2021/10/19 14:13:01;;;;;;;3.63;1.90;;;;;;;;;;5063243;28;20217;-68
2021/10/19 14:15:31;;;;;;;2.10;1.90;;;;;;;;;;5064368;28;20686;-66
2021/10/19 14:18:04;;;;;;;2.70;1.90;;;;;;;;;;5076747;28;20201;-67
2021/10/19 14:20:39;;;;;;;3.33;1.93;;;;;;;;;;5067870;28;20522;-67
2021/10/19 14:23:13;;;;;;;1.90;1.80;;;;;;;;;;5069554;28;20268;-65
2021/10/19 14:25:44;;;;;;;2.17;1.90;;;;;;;;;;5062988;28;20216;-65
2021/10/19 14:28:19;;;;;;;3.37;2.00;;;;;;;;;;5064910;28;20304;-65
2021/10/19 14:30:53;;;;;;;2.43;2.23;;;;;;;;;;5064114;28;20193;-65
2021/10/19 14:33:23;;;;;;;2.20;1.70;;;;;;;;;;5047565;28;20193;-65
2021/10/19 14:35:53;;;;;;;1.97;1.83;;;;;;;;;;5059496;28;20210;-66
2021/10/19 14:38:23;;;;;;;1.83;1.73;;;;;;;;;;5056349;28;20213;-65
2021/10/19 14:40:55;;;;;;;3.07;1.70;;;;;;;;;;5047926;28;20197;-65
2021/10/19 14:43:26;;;;;;;2.43;2.10;;;;;;;;;;5063425;28;20214;-66
2021/10/19 14:45:58;;;;;;;2.37;2.17;;;;;;;;;;5064226;28;20220;-66
2021/10/19 14:48:29;;;;;;;2.37;2.17;;;;;;;;;;5059355;28;20237;-65
2021/10/19 14:51:00;;;;;;;2.70;2.47;;;;;;;;;;5064832;28;20209;-66
2021/10/19 14:53:30;;;;;;;6.03;2.53;;;;;;;;;;5042169;28;20208;-67
2021/10/19 14:56:03;;;;;;;4.50;2.13;;;;;;;;;;5058675;28;20205;-66
2021/10/19 14:58:54;;;;;;;2.23;2.10;;;;;;;;;;5059825;28;20628;-68
2021/10/19 15:01:24;;;;;;;2.33;1.90;;;;;;;;;;5056909;28;20820;-68
2021/10/19 15:03:54;;;;;;;3.17;2.07;;;;;;;;;;5056190;28;20206;-68
2021/10/19 15:06:28;;;;;;;3.20;2.07;;;;;;;;;;5060658;28;20194;-67
2021/10/19 15:09:03;;;;;;;3.60;1.80;;;;;;;;;;5059260;28;20340;-68
2021/10/19 15:11:31;;;;;;;2.00;1.73;;;;;;;;;;5063519;28;20205;-68
2021/10/19 15:14:03;;;;;;;2.43;1.97;;;;;;;;;;5063297;28;20287;-66
2021/10/19 15:16:35;;;;;;;1.73;1.63;;;;;;;;;;5058552;28;20195;-66
2021/10/19 15:19:03;;;;;;;2.20;2.07;;;;;;;;;;5058967;28;20241;-66
2021/10/19 15:21:32;;;;;;;3.17;1.70;;;;;;;;;;5080110;28;20234;-67